createdAt,value
2023-07-23T00:01:49.247Z,5.30
2023-07-23T00:04:16.054Z,4.40
2023-07-23T00:06:42.802Z,5.70
2023-07-23T00:09:10.742Z,4.60
2023-07-23T00:11:37.493Z,7.00
2023-07-23T00:14:04.290Z,6.20
2023-07-23T00:16:31.072Z,5.00
2023-07-23T00:18:57.878Z,3.90
2023-07-23T00:21:24.849Z,4.90
2023-07-23T00:23:51.795Z,4.20
2023-07-23T00:26:18.475Z,6.90
2023-07-23T00:28:45.185Z,5.40
2023-07-23T00:31:12.007Z,6.30
2023-07-23T00:33:38.782Z,6.10
2023-07-23T00:36:05.616Z,5.90
2023-07-23T00:38:32.391Z,5.90
2023-07-23T00:40:59.257Z,7.70
2023-07-23T00:43:26.237Z,5.00
2023-07-23T00:45:53.086Z,12.00
2023-07-23T00:48:20.028Z,4.90
2023-07-23T00:50:46.729Z,6.70
2023-07-23T00:53:13.498Z,8.80
2023-07-23T00:55:40.394Z,7.70
2023-07-23T00:58:07.943Z,6.30
2023-07-23T01:00:34.777Z,5.50
2023-07-23T01:03:01.646Z,5.50
2023-07-23T01:05:30.213Z,8.60
2023-07-23T01:07:57.946Z,5.40
2023-07-23T01:10:26.057Z,5.90
2023-07-23T01:12:54.557Z,5.80
2023-07-23T01:15:21.409Z,12.10
2023-07-23T01:17:51.311Z,8.30
2023-07-23T01:20:18.036Z,7.40
2023-07-23T01:22:44.821Z,8.20
2023-07-23T01:25:11.602Z,5.10
2023-07-23T01:27:38.569Z,6.50
2023-07-23T01:30:08.755Z,7.70
2023-07-23T01:32:37.480Z,6.30
2023-07-23T01:35:10.483Z,6.40
2023-07-23T01:37:37.640Z,7.50
2023-07-23T01:40:04.930Z,5.80
2023-07-23T01:42:31.942Z,6.10
2023-07-23T01:45:05.493Z,5.60
2023-07-23T01:47:32.394Z,6.00
2023-07-23T01:49:59.259Z,7.00
2023-07-23T01:52:27.185Z,6.50
2023-07-23T01:54:54.142Z,5.60
2023-07-23T01:57:22.973Z,6.80
2023-07-23T01:59:50.113Z,7.80
2023-07-23T02:02:17.009Z,7.10
2023-07-23T02:04:43.733Z,7.60
2023-07-23T02:07:12.281Z,8.80
2023-07-23T02:09:38.989Z,9.60
2023-07-23T02:12:06.330Z,9.70
2023-07-23T02:14:33.440Z,9.70
2023-07-23T02:17:00.799Z,8.70
2023-07-23T02:19:27.631Z,7.90
2023-07-23T02:21:54.352Z,8.10
2023-07-23T02:24:21.284Z,7.60
2023-07-23T02:26:48.125Z,9.60
2023-07-23T02:29:14.880Z,8.70
2023-07-23T02:31:42.010Z,9.10
2023-07-23T02:34:08.809Z,7.40
2023-07-23T02:36:35.630Z,8.30
2023-07-23T02:39:03.424Z,8.10
2023-07-23T02:41:30.581Z,7.40
2023-07-23T02:43:57.886Z,6.60
2023-07-23T02:46:24.698Z,7.10
2023-07-23T02:48:51.656Z,7.10
2023-07-23T02:51:18.958Z,5.70
2023-07-23T02:53:45.836Z,6.80
2023-07-23T02:56:12.803Z,5.70
2023-07-23T02:58:39.619Z,7.80
2023-07-23T03:01:06.421Z,6.60
2023-07-23T03:03:33.407Z,5.70
2023-07-23T03:06:00.263Z,6.60
2023-07-23T03:08:27.112Z,8.80
2023-07-23T03:10:54.014Z,8.40
2023-07-23T03:13:20.880Z,6.80
2023-07-23T03:15:47.884Z,6.60
2023-07-23T03:18:14.600Z,8.20
2023-07-23T03:20:41.465Z,6.70
2023-07-23T03:23:08.405Z,6.30
2023-07-23T03:25:35.135Z,6.40
2023-07-23T03:28:03.756Z,6.00
2023-07-23T03:30:30.653Z,6.80
2023-07-23T03:32:57.437Z,6.80
2023-07-23T03:35:24.390Z,6.70
2023-07-23T03:37:51.217Z,6.10
2023-07-23T03:40:18.107Z,5.90
2023-07-23T03:42:44.869Z,7.10
2023-07-23T03:45:11.614Z,6.50
2023-07-23T03:47:38.565Z,6.00
2023-07-23T03:50:06.247Z,7.20
2023-07-23T03:52:33.245Z,5.50
2023-07-23T03:55:01.698Z,5.60
2023-07-23T03:57:28.413Z,5.40
2023-07-23T03:59:55.248Z,5.20
2023-07-23T04:02:22.096Z,5.30
2023-07-23T04:04:48.848Z,7.60
2023-07-23T04:07:15.606Z,10.00
2023-07-23T04:09:42.352Z,9.30
2023-07-23T04:12:11.924Z,6.20
2023-07-23T04:14:43.975Z,5.50
2023-07-23T04:17:11.546Z,5.20
2023-07-23T04:19:38.278Z,6.90
2023-07-23T04:22:04.934Z,7.70
2023-07-23T04:24:31.737Z,6.40
2023-07-23T04:26:58.430Z,5.90
2023-07-23T04:29:25.212Z,6.00
2023-07-23T04:31:51.981Z,6.20
2023-07-23T04:34:18.687Z,6.90
2023-07-23T04:36:45.350Z,8.00
2023-07-23T04:39:12.181Z,5.90
2023-07-23T04:41:38.864Z,7.10
2023-07-23T04:44:05.545Z,6.10
2023-07-23T04:59:28.964Z,6.30
2023-07-23T05:01:55.791Z,5.70
2023-07-23T05:04:24.775Z,5.70
2023-07-23T05:06:52.262Z,5.40
2023-07-23T05:09:19.025Z,5.70
2023-07-23T05:11:45.779Z,5.70
2023-07-23T05:14:12.529Z,6.60
2023-07-23T05:16:41.094Z,5.90
2023-07-23T05:19:07.762Z,4.70
2023-07-23T05:21:37.204Z,4.40
2023-07-23T05:24:04.306Z,5.90
2023-07-23T05:26:31.034Z,4.80
2023-07-23T05:28:57.800Z,5.80
2023-07-23T05:31:24.537Z,4.60
2023-07-23T05:33:51.324Z,4.90
2023-07-23T05:36:17.984Z,6.10
2023-07-23T05:38:44.631Z,4.80
2023-07-23T05:41:11.348Z,5.70
2023-07-23T05:43:38.128Z,6.00
2023-07-23T05:46:04.860Z,7.00
2023-07-23T05:48:31.467Z,5.30
2023-07-23T05:50:58.186Z,5.80
2023-07-23T05:53:24.932Z,5.30
2023-07-23T05:55:51.603Z,6.60
2023-07-23T05:58:18.309Z,5.80
2023-07-23T06:00:45.038Z,5.40
2023-07-23T06:03:11.803Z,5.60
2023-07-23T06:05:38.798Z,6.50
2023-07-23T06:08:05.462Z,8.10
2023-07-23T06:10:33.046Z,6.30
2023-07-23T06:12:59.734Z,7.40
2023-07-23T06:15:26.537Z,7.00
2023-07-23T06:17:53.343Z,6.40
2023-07-23T06:20:20.042Z,8.10
2023-07-23T06:22:46.823Z,6.30
2023-07-23T06:25:13.647Z,4.30
2023-07-23T06:27:40.949Z,6.00
2023-07-23T06:30:08.161Z,9.10
2023-07-23T06:32:34.960Z,5.20
2023-07-23T06:35:04.741Z,5.40
2023-07-23T06:37:32.952Z,6.00
2023-07-23T06:39:59.896Z,5.10
2023-07-23T06:42:26.674Z,6.00
2023-07-23T06:44:53.470Z,4.90
2023-07-23T06:47:20.568Z,4.50
2023-07-23T06:49:47.258Z,4.70
2023-07-23T06:52:14.028Z,4.70
2023-07-23T06:54:43.184Z,5.10
2023-07-23T06:57:10.098Z,4.80
2023-07-23T06:59:36.952Z,4.90
2023-07-23T07:02:04.119Z,4.70
2023-07-23T07:04:30.937Z,5.70
2023-07-23T07:06:57.731Z,5.20
2023-07-23T07:09:24.391Z,4.90
2023-07-23T07:11:51.599Z,5.40
2023-07-23T07:14:18.435Z,5.40
2023-07-23T07:16:45.202Z,4.90
2023-07-23T07:19:12.015Z,5.60
2023-07-23T07:21:38.832Z,5.50
2023-07-23T07:24:07.010Z,4.90
2023-07-23T07:26:33.688Z,4.40
2023-07-23T07:29:00.526Z,4.50
2023-07-23T07:31:27.425Z,4.40
2023-07-23T07:33:54.546Z,5.50
2023-07-23T07:36:21.440Z,5.20
2023-07-23T07:38:48.209Z,4.20
2023-07-23T07:41:15.149Z,4.60
2023-07-23T07:43:42.049Z,5.00
2023-07-23T07:46:09.048Z,4.30
2023-07-23T07:48:38.242Z,3.80
2023-07-23T07:51:07.507Z,5.50
2023-07-23T07:53:35.908Z,4.20
2023-07-23T07:56:03.729Z,4.60
2023-07-23T07:58:31.635Z,5.90
2023-07-23T08:01:00.243Z,5.80
2023-07-23T08:03:29.624Z,5.20
2023-07-23T08:05:58.207Z,4.80
2023-07-23T08:08:30.662Z,4.50
2023-07-23T08:10:59.702Z,4.40
2023-07-23T08:13:27.165Z,4.20
2023-07-23T08:15:56.022Z,4.30
2023-07-23T08:18:24.859Z,4.60
2023-07-23T08:20:52.132Z,4.00
2023-07-23T08:23:19.806Z,4.70
2023-07-23T08:25:52.635Z,4.90
2023-07-23T08:28:29.697Z,4.10
2023-07-23T08:30:57.674Z,4.30
2023-07-23T08:33:30.707Z,4.40
2023-07-23T08:36:00.028Z,4.10
2023-07-23T08:38:27.488Z,4.60
2023-07-23T08:41:05.109Z,4.80
2023-07-23T08:44:11.052Z,4.20
2023-07-23T08:46:45.984Z,4.60
2023-07-23T08:49:16.437Z,4.50
2023-07-23T08:51:49.482Z,4.30
2023-07-23T08:54:19.801Z,4.00
2023-07-23T08:56:46.662Z,5.10
2023-07-23T08:59:13.680Z,4.80
2023-07-23T09:01:41.978Z,5.70
2023-07-23T09:04:12.102Z,4.20
2023-07-23T09:06:41.860Z,5.40
2023-07-23T09:09:11.098Z,4.90
2023-07-23T09:11:38.944Z,5.00
2023-07-23T09:14:16.507Z,5.00
2023-07-23T09:16:48.362Z,4.40
2023-07-23T09:19:27.299Z,4.50
2023-07-23T09:22:01.153Z,4.20
2023-07-23T09:24:35.466Z,4.30
2023-07-23T09:27:03.038Z,3.40
2023-07-23T09:29:39.245Z,3.70
2023-07-23T09:32:23.506Z,3.20
2023-07-23T09:37:18.407Z,5.40
2023-07-23T09:39:45.251Z,3.80
2023-07-23T09:42:12.898Z,3.90
2023-07-23T09:44:42.455Z,3.20
2023-07-23T09:47:09.370Z,4.70
2023-07-23T09:49:37.352Z,3.60
2023-07-23T09:52:08.598Z,4.10
2023-07-23T09:54:36.483Z,3.80
2023-07-23T09:57:04.265Z,3.10
2023-07-23T09:59:37.166Z,2.90
2023-07-23T10:02:08.430Z,3.50
2023-07-23T10:04:36.420Z,3.00
2023-07-23T10:07:05.042Z,3.30
2023-07-23T10:09:33.358Z,3.30
2023-07-23T10:12:00.172Z,2.80
2023-07-23T10:14:28.092Z,3.20
2023-07-23T10:16:56.477Z,2.80
2023-07-23T10:19:23.337Z,2.80
2023-07-23T10:21:50.994Z,2.60
2023-07-23T10:24:19.050Z,3.10
2023-07-23T10:26:48.451Z,3.00
2023-07-23T10:29:19.238Z,3.00
2023-07-23T10:31:46.533Z,3.20
2023-07-23T10:34:22.559Z,2.60
2023-07-23T10:37:14.662Z,3.70
2023-07-23T10:39:47.703Z,2.90
2023-07-23T10:42:36.979Z,2.40
2023-07-23T10:45:20.722Z,3.80
2023-07-23T10:47:57.348Z,2.30
2023-07-23T10:50:25.852Z,2.80
2023-07-23T10:53:00.234Z,2.40
2023-07-23T10:55:47.660Z,3.00
2023-07-23T10:58:19.423Z,2.70
2023-07-23T11:00:48.498Z,2.70
2023-07-23T11:03:18.069Z,2.60
2023-07-23T11:05:46.388Z,2.70
2023-07-23T11:08:16.691Z,2.60
2023-07-23T11:11:03.513Z,3.60
2023-07-23T11:13:33.994Z,2.60
2023-07-23T11:16:02.514Z,2.60
2023-07-23T11:18:32.397Z,2.80
2023-07-23T11:21:03.779Z,2.50
2023-07-23T11:23:32.244Z,2.50
2023-07-23T11:26:00.135Z,2.50
2023-07-23T11:28:28.044Z,2.50
2023-07-23T11:30:56.347Z,2.80
2023-07-23T11:33:27.735Z,3.70
2023-07-23T11:35:54.592Z,2.50
2023-07-23T11:38:27.933Z,3.20
2023-07-23T11:40:59.501Z,2.60
2023-07-23T11:43:26.694Z,2.60
2023-07-23T11:45:53.827Z,2.60
2023-07-23T11:48:22.451Z,2.80
2023-07-23T11:50:52.467Z,2.70
2023-07-23T11:53:38.374Z,2.90
2023-07-23T11:56:07.357Z,2.40
2023-07-23T11:58:35.980Z,2.60
2023-07-23T12:01:07.125Z,3.70
2023-07-23T12:03:42.612Z,3.80
2023-07-23T12:06:15.267Z,2.30
2023-07-23T12:08:44.011Z,2.70
2023-07-23T12:11:15.639Z,2.50
2023-07-23T12:13:52.383Z,2.50
2023-07-23T12:16:38.234Z,3.60
2023-07-23T12:19:10.342Z,2.70
2023-07-23T12:21:40.574Z,2.70
2023-07-23T12:24:24.962Z,2.50
2023-07-23T12:26:54.257Z,2.70
2023-07-23T12:29:39.668Z,2.80
2023-07-23T12:32:13.438Z,2.30
2023-07-23T12:34:43.823Z,2.40
2023-07-23T12:37:11.110Z,3.00
2023-07-23T12:39:38.098Z,2.20
2023-07-23T12:42:05.318Z,2.70
2023-07-23T12:44:32.113Z,3.40
2023-07-23T12:46:59.574Z,2.60
2023-07-23T12:49:26.330Z,2.50
2023-07-23T12:51:53.117Z,2.50
2023-07-23T12:54:20.072Z,2.10
2023-07-23T12:56:47.346Z,3.20
2023-07-23T12:59:14.282Z,2.10
2023-07-23T13:01:41.820Z,3.30
2023-07-23T13:04:08.938Z,2.70
2023-07-23T13:06:35.990Z,2.90
2023-07-23T13:09:02.907Z,2.70
2023-07-23T13:11:29.919Z,2.10
2023-07-23T13:13:56.807Z,1.80
2023-07-23T13:16:23.700Z,2.20
2023-07-23T13:18:51.353Z,3.00
2023-07-23T13:21:18.099Z,2.30
2023-07-23T13:23:45.005Z,3.40
2023-07-23T13:26:11.869Z,3.90
2023-07-23T13:28:38.765Z,2.20
2023-07-23T13:31:05.742Z,2.50
2023-07-23T13:33:32.606Z,2.20
2023-07-23T13:35:59.405Z,2.40
2023-07-23T13:38:26.336Z,2.10
2023-07-23T13:40:53.207Z,3.40
2023-07-23T13:43:20.115Z,2.90
2023-07-23T13:45:46.923Z,3.50
2023-07-23T13:48:13.759Z,2.90
2023-07-23T13:50:51.080Z,2.10
2023-07-23T13:53:19.417Z,2.20
2023-07-23T13:55:46.720Z,2.60
2023-07-23T13:58:13.654Z,2.30
2023-07-23T14:00:40.570Z,1.90
2023-07-23T14:03:07.465Z,2.80
2023-07-23T14:05:35.245Z,2.00
2023-07-23T14:08:03.018Z,2.40
2023-07-23T14:10:29.801Z,3.00
2023-07-23T14:12:57.076Z,2.10
2023-07-23T14:15:24.004Z,2.60
2023-07-23T14:17:51.010Z,2.80
2023-07-23T14:20:17.906Z,2.70
2023-07-23T14:22:44.824Z,2.80
2023-07-23T14:25:11.633Z,2.40
2023-07-23T14:27:38.391Z,3.60
2023-07-23T14:30:06.009Z,3.10
2023-07-23T14:32:33.215Z,2.60
2023-07-23T14:35:00.049Z,3.90
2023-07-23T14:37:28.427Z,2.10
2023-07-23T14:39:55.123Z,2.90
2023-07-23T14:42:21.909Z,2.40
2023-07-23T14:44:48.739Z,2.30
2023-07-23T14:47:15.739Z,2.40
2023-07-23T14:49:42.464Z,2.30
2023-07-23T14:52:09.304Z,3.30
2023-07-23T14:54:36.034Z,2.40
2023-07-23T14:57:03.046Z,4.20
2023-07-23T14:59:29.824Z,1.90
2023-07-23T15:01:56.663Z,2.20
2023-07-23T15:04:23.505Z,2.50
2023-07-23T15:06:50.396Z,2.10
2023-07-23T15:09:17.467Z,2.20
2023-07-23T15:11:44.722Z,2.50
2023-07-23T15:14:11.852Z,2.30
2023-07-23T15:16:39.060Z,2.30
2023-07-23T15:19:06.106Z,2.30
2023-07-23T15:21:35.890Z,2.50
2023-07-23T15:24:03.978Z,2.80
2023-07-23T15:26:32.673Z,3.10
2023-07-23T15:29:01.322Z,2.80
2023-07-23T15:31:28.616Z,3.20
2023-07-23T15:33:55.841Z,4.60
2023-07-23T15:36:22.672Z,4.50
2023-07-23T15:38:49.555Z,9.70
2023-07-23T15:41:18.022Z,4.50
2023-07-23T15:43:44.813Z,4.00
2023-07-23T15:46:11.709Z,5.00
2023-07-23T15:48:38.501Z,3.60
2023-07-23T15:51:05.364Z,3.50
2023-07-23T15:53:32.053Z,4.60
2023-07-23T15:55:58.992Z,3.90
2023-07-23T15:58:25.716Z,3.70
2023-07-23T16:00:54.741Z,3.60
2023-07-23T16:03:21.831Z,3.50
2023-07-23T16:05:48.808Z,3.00
2023-07-23T16:08:16.840Z,2.70
2023-07-23T16:10:45.703Z,5.00
2023-07-23T16:13:13.032Z,6.00
2023-07-23T16:15:39.908Z,7.00
2023-07-23T16:18:06.816Z,2.90
2023-07-23T16:20:34.295Z,3.50
2023-07-23T16:23:01.107Z,3.10
2023-07-23T16:25:27.859Z,3.30
2023-07-23T16:27:54.633Z,3.30
2023-07-23T16:30:21.369Z,4.20
2023-07-23T16:32:48.506Z,3.60
2023-07-23T16:35:16.332Z,4.40
2023-07-23T16:37:47.807Z,5.20
2023-07-23T16:40:16.730Z,5.60
2023-07-23T16:42:49.268Z,5.70
2023-07-23T16:45:17.238Z,5.00
2023-07-23T16:47:44.249Z,5.10
2023-07-23T16:50:11.474Z,7.30
2023-07-23T16:52:38.837Z,6.30
2023-07-23T16:55:05.901Z,4.50
2023-07-23T16:57:32.681Z,4.90
2023-07-23T16:59:59.678Z,5.20
2023-07-23T17:02:26.645Z,6.40
2023-07-23T17:04:53.702Z,7.20
2023-07-23T17:07:20.572Z,4.90
2023-07-23T17:09:48.967Z,4.70
2023-07-23T17:12:15.852Z,5.50
2023-07-23T17:14:42.561Z,5.90
2023-07-23T17:17:09.558Z,4.40
2023-07-23T17:19:36.525Z,5.00
2023-07-23T17:22:04.693Z,5.00
2023-07-23T17:24:31.665Z,3.80
2023-07-23T17:26:58.499Z,3.20
2023-07-23T17:29:25.438Z,4.00
2023-07-23T17:31:52.386Z,4.50
2023-07-23T17:34:19.184Z,5.60
2023-07-23T17:36:46.086Z,4.20
2023-07-23T17:39:12.953Z,4.40
2023-07-23T17:41:39.703Z,3.30
2023-07-23T17:44:06.563Z,4.00
2023-07-23T17:46:33.470Z,7.80
2023-07-23T17:49:00.491Z,3.50
2023-07-23T17:51:27.545Z,4.50
2023-07-23T17:53:55.411Z,2.80
2023-07-23T17:56:22.365Z,4.00
2023-07-23T17:58:50.285Z,4.60
2023-07-23T18:01:29.788Z,4.90
2023-07-23T18:04:00.582Z,3.40
2023-07-23T18:06:27.683Z,3.20
2023-07-23T18:08:54.832Z,3.90
2023-07-23T18:11:21.572Z,4.30
2023-07-23T18:13:48.519Z,5.00
2023-07-23T18:16:15.330Z,3.60
2023-07-23T18:18:42.680Z,4.70
2023-07-23T18:21:09.523Z,4.10
2023-07-23T18:23:36.306Z,3.50
2023-07-23T18:26:05.773Z,4.80
2023-07-23T18:28:33.837Z,4.90
2023-07-23T18:31:01.995Z,4.70
2023-07-23T18:33:29.074Z,4.90
2023-07-23T18:35:55.884Z,5.30
2023-07-23T18:38:22.880Z,5.00
2023-07-23T18:40:56.924Z,3.70
2023-07-23T18:43:24.031Z,4.60
2023-07-23T18:45:51.648Z,5.90
2023-07-23T18:48:18.578Z,7.10
2023-07-23T18:50:45.444Z,6.70
2023-07-23T18:53:12.413Z,6.20
2023-07-23T18:55:39.275Z,5.00
2023-07-23T18:58:06.152Z,5.50
2023-07-23T19:00:34.761Z,4.30
2023-07-23T19:03:01.767Z,4.20
2023-07-23T19:05:28.839Z,4.20
2023-07-23T19:07:55.699Z,6.60
2023-07-23T19:10:22.510Z,5.00
2023-07-23T19:12:49.232Z,7.10
2023-07-23T19:15:16.118Z,5.30
2023-07-23T19:17:47.435Z,3.00
2023-07-23T19:20:22.449Z,4.80
2023-07-23T19:22:49.310Z,4.30
2023-07-23T19:25:16.206Z,4.00
2023-07-23T19:27:43.066Z,8.50
2023-07-23T19:30:10.607Z,3.70
2023-07-23T19:32:37.760Z,4.70
2023-07-23T19:35:05.064Z,4.10
2023-07-23T19:37:31.819Z,3.60
2023-07-23T19:39:58.642Z,4.80
2023-07-23T19:42:25.573Z,4.00
2023-07-23T19:44:52.436Z,5.10
2023-07-23T19:47:19.333Z,3.40
2023-07-23T19:49:46.228Z,4.90
2023-07-23T19:52:13.017Z,4.30
2023-07-23T19:54:39.859Z,7.10
2023-07-23T19:57:06.748Z,4.20
2023-07-23T19:59:34.038Z,4.80
2023-07-23T20:02:00.961Z,3.30
2023-07-23T20:04:27.732Z,4.70
2023-07-23T20:06:54.499Z,3.90
2023-07-23T20:09:21.246Z,4.10
2023-07-23T20:11:48.054Z,3.60
2023-07-23T20:14:14.929Z,3.70
2023-07-23T20:16:42.281Z,4.70
2023-07-23T20:19:08.970Z,4.30
2023-07-23T20:21:44.127Z,2.70
2023-07-23T20:24:15.786Z,4.10
2023-07-23T20:26:43.207Z,4.00
2023-07-23T20:29:10.422Z,4.20
2023-07-23T20:31:37.590Z,4.10
2023-07-23T20:34:05.944Z,4.40
2023-07-23T20:36:33.648Z,4.10
2023-07-23T20:39:02.827Z,4.90
2023-07-23T20:41:30.443Z,3.20
2023-07-23T20:43:57.891Z,4.80
2023-07-23T20:46:26.832Z,6.40
2023-07-23T20:48:54.551Z,4.20
2023-07-23T20:51:21.505Z,3.70
2023-07-23T20:53:48.959Z,5.30
2023-07-23T20:56:19.031Z,4.70
2023-07-23T20:58:45.760Z,3.90
2023-07-23T21:01:12.668Z,4.70
2023-07-23T21:03:39.575Z,4.30
2023-07-23T21:06:06.455Z,3.90
2023-07-23T21:08:33.488Z,5.80
2023-07-23T21:11:00.291Z,4.10
2023-07-23T21:13:27.099Z,6.60
2023-07-23T21:15:58.005Z,4.00
2023-07-23T21:18:25.007Z,4.30
2023-07-23T21:20:51.978Z,3.50
2023-07-23T21:23:19.364Z,3.10
2023-07-23T21:25:46.347Z,3.50
2023-07-23T21:28:13.118Z,4.60
2023-07-23T21:30:39.966Z,4.20
2023-07-23T21:33:06.740Z,4.80
2023-07-23T21:35:41.461Z,3.60
2023-07-23T21:38:09.086Z,3.40
2023-07-23T21:40:36.431Z,3.50
2023-07-23T21:43:03.204Z,4.20
2023-07-23T21:45:29.926Z,5.70
2023-07-23T21:47:56.834Z,6.20
2023-07-23T21:50:23.630Z,4.90
2023-07-23T21:52:50.508Z,4.90
2023-07-23T21:55:17.387Z,4.50
2023-07-23T21:57:45.479Z,3.70
2023-07-23T22:00:14.124Z,5.70
2023-07-23T22:02:41.084Z,3.80
2023-07-23T22:05:08.751Z,4.20
2023-07-23T22:07:35.625Z,4.90
2023-07-23T22:10:03.817Z,3.50
2023-07-23T22:12:30.638Z,3.40
2023-07-23T22:14:57.460Z,4.40
2023-07-23T22:17:24.258Z,3.10
2023-07-23T22:19:51.173Z,4.30
2023-07-23T22:22:19.546Z,4.60
2023-07-23T22:24:47.788Z,5.60
2023-07-23T22:27:14.632Z,4.30
2023-07-23T22:29:41.486Z,3.90
2023-07-23T22:32:08.149Z,6.30
2023-07-23T22:34:34.938Z,4.90
2023-07-23T22:37:01.765Z,4.80
2023-07-23T22:39:28.555Z,4.40
2023-07-23T22:41:55.372Z,4.70
2023-07-23T22:44:22.268Z,4.90
2023-07-23T22:46:50.191Z,3.90
2023-07-23T22:49:16.953Z,5.00
2023-07-23T22:51:43.772Z,4.90
2023-07-23T22:54:10.658Z,4.60
2023-07-23T22:56:38.242Z,4.90
2023-07-23T22:59:05.108Z,3.40
2023-07-23T23:01:31.951Z,3.90
2023-07-23T23:03:58.753Z,3.60
2023-07-23T23:06:26.001Z,3.50
2023-07-23T23:08:53.349Z,6.10
2023-07-23T23:11:20.228Z,3.40
2023-07-23T23:13:46.997Z,3.70
2023-07-23T23:16:13.886Z,4.60
2023-07-23T23:18:40.700Z,5.90
2023-07-23T23:21:07.489Z,5.50
2023-07-23T23:23:34.253Z,5.30
2023-07-23T23:26:01.043Z,4.30
2023-07-23T23:28:27.982Z,3.40
2023-07-23T23:30:54.789Z,4.30
2023-07-23T23:33:21.633Z,3.50
2023-07-23T23:35:52.837Z,4.20
2023-07-23T23:38:19.521Z,3.90
2023-07-23T23:40:46.372Z,4.50
2023-07-23T23:43:13.128Z,4.40
2023-07-23T23:45:39.822Z,4.30
2023-07-23T23:48:06.682Z,7.30
2023-07-23T23:50:33.521Z,3.10
2023-07-23T23:53:00.263Z,4.00
2023-07-23T23:55:26.984Z,4.10
2023-07-23T23:57:54.418Z,4.30
